sensor_id;sensor_type;location;lat;lon;timestamp;P1;durP1;ratioP1;P2;durP2;ratioP2
79592;SDS011;69074;45.164;9.704;2023-08-21T00:01:05;35.7;;;28.9;;
79592;SDS011;69074;45.164;9.704;2023-08-21T00:03:30;35.7;;;28.9;;
79592;SDS011;69074;45.164;9.704;2023-08-21T00:05:55;24.5;;;20.7;;
79592;SDS011;69074;45.164;9.704;2023-08-21T00:08:20;24.5;;;20.7;;
79592;SDS011;69074;45.164;9.704;2023-08-21T00:10:45;24.5;;;20.7;;
79592;SDS011;69074;45.164;9.704;2023-08-21T00:13:10;24.5;;;20.7;;
79592;SDS011;69074;45.164;9.704;2023-08-21T00:18:00;24.5;;;20.7;;
79592;SDS011;69074;45.164;9.704;2023-08-21T00:20:25;18.9;;;16.9;;
79592;SDS011;69074;45.164;9.704;2023-08-21T00:22:50;18.9;;;16.9;;
79592;SDS011;69074;45.164;9.704;2023-08-21T00:25:15;18.9;;;16.9;;
79592;SDS011;69074;45.164;9.704;2023-08-21T00:27:40;18.9;;;16.9;;
79592;SDS011;69074;45.164;9.704;2023-08-21T00:30:06;18.9;;;16.9;;
79592;SDS011;69074;45.164;9.704;2023-08-21T00:32:30;18.9;;;16.9;;
79592;SDS011;69074;45.164;9.704;2023-08-21T00:34:55;19.4;;;17.4;;
79592;SDS011;69074;45.164;9.704;2023-08-21T00:37:20;19.4;;;17.4;;
79592;SDS011;69074;45.164;9.704;2023-08-21T00:39:45;19.4;;;17.4;;
79592;SDS011;69074;45.164;9.704;2023-08-21T00:42:10;19.4;;;17.4;;
79592;SDS011;69074;45.164;9.704;2023-08-21T00:44:36;19.4;;;17.4;;
79592;SDS011;69074;45.164;9.704;2023-08-21T00:47:01;19.4;;;17.4;;
79592;SDS011;69074;45.164;9.704;2023-08-21T00:49:26;19.4;;;17.4;;
79592;SDS011;69074;45.164;9.704;2023-08-21T00:51:51;21.0;;;18.7;;
79592;SDS011;69074;45.164;9.704;2023-08-21T00:54:16;21.0;;;18.7;;
79592;SDS011;69074;45.164;9.704;2023-08-21T00:56:41;21.0;;;18.7;;
79592;SDS011;69074;45.164;9.704;2023-08-21T00:59:06;21.0;;;18.7;;
79592;SDS011;69074;45.164;9.704;2023-08-21T01:01:31;21.0;;;18.7;;
79592;SDS011;69074;45.164;9.704;2023-08-21T01:03:56;21.0;;;18.7;;
79592;SDS011;69074;45.164;9.704;2023-08-21T01:06:21;24.4;;;20.2;;
79592;SDS011;69074;45.164;9.704;2023-08-21T01:08:46;24.4;;;20.2;;
79592;SDS011;69074;45.164;9.704;2023-08-21T01:11:12;24.4;;;20.2;;
79592;SDS011;69074;45.164;9.704;2023-08-21T01:13:40;24.4;;;20.2;;
79592;SDS011;69074;45.164;9.704;2023-08-21T01:16:01;24.4;;;20.2;;
79592;SDS011;69074;45.164;9.704;2023-08-21T01:18:26;24.4;;;20.2;;
79592;SDS011;69074;45.164;9.704;2023-08-21T01:20:51;19.3;;;17.3;;
79592;SDS011;69074;45.164;9.704;2023-08-21T01:23:32;19.3;;;17.3;;
79592;SDS011;69074;45.164;9.704;2023-08-21T01:25:41;19.3;;;17.3;;
79592;SDS011;69074;45.164;9.704;2023-08-21T01:28:06;19.3;;;17.3;;
79592;SDS011;69074;45.164;9.704;2023-08-21T01:30:31;19.3;;;17.3;;
79592;SDS011;69074;45.164;9.704;2023-08-21T01:32:57;19.3;;;17.3;;
79592;SDS011;69074;45.164;9.704;2023-08-21T01:35:21;20.1;;;18.0;;
79592;SDS011;69074;45.164;9.704;2023-08-21T01:37:46;20.1;;;18.0;;
79592;SDS011;69074;45.164;9.704;2023-08-21T01:40:11;20.1;;;18.0;;
79592;SDS011;69074;45.164;9.704;2023-08-21T01:42:36;20.1;;;18.0;;
79592;SDS011;69074;45.164;9.704;2023-08-21T01:45:01;20.1;;;18.0;;
79592;SDS011;69074;45.164;9.704;2023-08-21T01:47:26;20.1;;;18.0;;
79592;SDS011;69074;45.164;9.704;2023-08-21T01:49:51;25.7;;;23.0;;
79592;SDS011;69074;45.164;9.704;2023-08-21T01:52:16;25.7;;;23.0;;
79592;SDS011;69074;45.164;9.704;2023-08-21T01:54:41;25.7;;;23.0;;
79592;SDS011;69074;45.164;9.704;2023-08-21T01:57:06;25.7;;;23.0;;
79592;SDS011;69074;45.164;9.704;2023-08-21T01:59:31;25.7;;;23.0;;
79592;SDS011;69074;45.164;9.704;2023-08-21T02:01:56;25.7;;;23.0;;
79592;SDS011;69074;45.164;9.704;2023-08-21T02:04:21;25.7;;;23.0;;
79592;SDS011;69074;45.164;9.704;2023-08-21T02:06:46;26.6;;;23.8;;
79592;SDS011;69074;45.164;9.704;2023-08-21T02:09:11;26.6;;;23.8;;
79592;SDS011;69074;45.164;9.704;2023-08-21T02:11:36;26.6;;;23.8;;
79592;SDS011;69074;45.164;9.704;2023-08-21T02:14:01;26.6;;;23.8;;
79592;SDS011;69074;45.164;9.704;2023-08-21T02:16:26;26.6;;;23.8;;
79592;SDS011;69074;45.164;9.704;2023-08-21T02:18:51;26.6;;;23.8;;
79592;SDS011;69074;45.164;9.704;2023-08-21T02:21:16;25.6;;;22.8;;
79592;SDS011;69074;45.164;9.704;2023-08-21T02:23:41;25.6;;;22.8;;
79592;SDS011;69074;45.164;9.704;2023-08-21T02:26:06;25.6;;;22.8;;
79592;SDS011;69074;45.164;9.704;2023-08-21T02:28:31;25.6;;;22.8;;
79592;SDS011;69074;45.164;9.704;2023-08-21T02:30:56;25.6;;;22.8;;
79592;SDS011;69074;45.164;9.704;2023-08-21T02:33:21;25.6;;;22.8;;
79592;SDS011;69074;45.164;9.704;2023-08-21T02:35:46;30.2;;;26.9;;
79592;SDS011;69074;45.164;9.704;2023-08-21T02:38:11;30.2;;;26.9;;
79592;SDS011;69074;45.164;9.704;2023-08-21T02:40:36;30.2;;;26.9;;
79592;SDS011;69074;45.164;9.704;2023-08-21T02:43:01;30.2;;;26.9;;
79592;SDS011;69074;45.164;9.704;2023-08-21T02:45:26;30.2;;;26.9;;
79592;SDS011;69074;45.164;9.704;2023-08-21T02:47:51;30.2;;;26.9;;
79592;SDS011;69074;45.164;9.704;2023-08-21T02:50:16;31.3;;;27.0;;
79592;SDS011;69074;45.164;9.704;2023-08-21T02:52:41;31.3;;;27.0;;
79592;SDS011;69074;45.164;9.704;2023-08-21T02:55:06;31.3;;;27.0;;
79592;SDS011;69074;45.164;9.704;2023-08-21T02:57:31;31.3;;;27.0;;
79592;SDS011;69074;45.164;9.704;2023-08-21T02:59:56;31.3;;;27.0;;
79592;SDS011;69074;45.164;9.704;2023-08-21T03:02:21;31.3;;;27.0;;
79592;SDS011;69074;45.164;9.704;2023-08-21T03:04:46;29.3;;;25.9;;
79592;SDS011;69074;45.164;9.704;2023-08-21T03:07:11;29.3;;;25.9;;
79592;SDS011;69074;45.164;9.704;2023-08-21T03:09:36;29.3;;;25.9;;
79592;SDS011;69074;45.164;9.704;2023-08-21T03:12:01;29.3;;;25.9;;
79592;SDS011;69074;45.164;9.704;2023-08-21T03:14:26;29.3;;;25.9;;
79592;SDS011;69074;45.164;9.704;2023-08-21T03:16:51;29.3;;;25.9;;
79592;SDS011;69074;45.164;9.704;2023-08-21T03:19:16;29.3;;;25.9;;
79592;SDS011;69074;45.164;9.704;2023-08-21T03:21:41;28.8;;;25.7;;
79592;SDS011;69074;45.164;9.704;2023-08-21T03:24:06;28.8;;;25.7;;
79592;SDS011;69074;45.164;9.704;2023-08-21T03:26:31;28.8;;;25.7;;
79592;SDS011;69074;45.164;9.704;2023-08-21T03:28:56;28.8;;;25.7;;
79592;SDS011;69074;45.164;9.704;2023-08-21T03:31:21;28.8;;;25.7;;
79592;SDS011;69074;45.164;9.704;2023-08-21T03:33:46;28.8;;;25.7;;
79592;SDS011;69074;45.164;9.704;2023-08-21T03:36:11;29.6;;;26.0;;
79592;SDS011;69074;45.164;9.704;2023-08-21T03:38:36;29.6;;;26.0;;
79592;SDS011;69074;45.164;9.704;2023-08-21T03:41:01;29.6;;;26.0;;
79592;SDS011;69074;45.164;9.704;2023-08-21T03:43:26;29.6;;;26.0;;
79592;SDS011;69074;45.164;9.704;2023-08-21T03:45:51;29.6;;;26.0;;
79592;SDS011;69074;45.164;9.704;2023-08-21T03:48:16;29.6;;;26.0;;
79592;SDS011;69074;45.164;9.704;2023-08-21T03:50:41;31.6;;;28.1;;
79592;SDS011;69074;45.164;9.704;2023-08-21T03:53:06;31.6;;;28.1;;
79592;SDS011;69074;45.164;9.704;2023-08-21T03:55:31;31.6;;;28.1;;
79592;SDS011;69074;45.164;9.704;2023-08-21T03:57:56;31.6;;;28.1;;
79592;SDS011;69074;45.164;9.704;2023-08-21T04:00:21;31.6;;;28.1;;
79592;SDS011;69074;45.164;9.704;2023-08-21T04:02:46;31.6;;;28.1;;
79592;SDS011;69074;45.164;9.704;2023-08-21T04:05:11;29.8;;;26.6;;
79592;SDS011;69074;45.164;9.704;2023-08-21T04:07:36;29.8;;;26.6;;
79592;SDS011;69074;45.164;9.704;2023-08-21T04:10:01;29.8;;;26.6;;
79592;SDS011;69074;45.164;9.704;2023-08-21T04:12:26;29.8;;;26.6;;
79592;SDS011;69074;45.164;9.704;2023-08-21T04:14:51;29.8;;;26.6;;
79592;SDS011;69074;45.164;9.704;2023-08-21T04:17:19;29.8;;;26.6;;
79592;SDS011;69074;45.164;9.704;2023-08-21T04:19:41;32.1;;;27.6;;
79592;SDS011;69074;45.164;9.704;2023-08-21T04:22:06;32.1;;;27.6;;
79592;SDS011;69074;45.164;9.704;2023-08-21T04:24:31;32.1;;;27.6;;
79592;SDS011;69074;45.164;9.704;2023-08-21T04:26:56;32.1;;;27.6;;
79592;SDS011;69074;45.164;9.704;2023-08-21T04:29:22;32.1;;;27.6;;
79592;SDS011;69074;45.164;9.704;2023-08-21T04:31:46;32.1;;;27.6;;
79592;SDS011;69074;45.164;9.704;2023-08-21T04:34:12;32.1;;;27.6;;
79592;SDS011;69074;45.164;9.704;2023-08-21T04:36:36;34.9;;;28.3;;
79592;SDS011;69074;45.164;9.704;2023-08-21T04:39:02;34.9;;;28.3;;
79592;SDS011;69074;45.164;9.704;2023-08-21T04:41:27;34.9;;;28.3;;
79592;SDS011;69074;45.164;9.704;2023-08-21T04:43:51;34.9;;;28.3;;
79592;SDS011;69074;45.164;9.704;2023-08-21T04:46:17;34.9;;;28.3;;
79592;SDS011;69074;45.164;9.704;2023-08-21T04:48:42;34.9;;;28.3;;
79592;SDS011;69074;45.164;9.704;2023-08-21T04:51:07;29.5;;;26.3;;
79592;SDS011;69074;45.164;9.704;2023-08-21T04:53:32;29.5;;;26.3;;
79592;SDS011;69074;45.164;9.704;2023-08-21T04:55:58;29.5;;;26.3;;
79592;SDS011;69074;45.164;9.704;2023-08-21T04:58:22;29.5;;;26.3;;
79592;SDS011;69074;45.164;9.704;2023-08-21T05:00:47;29.5;;;26.3;;
79592;SDS011;69074;45.164;9.704;2023-08-21T05:03:12;29.5;;;26.3;;
79592;SDS011;69074;45.164;9.704;2023-08-21T05:05:37;57.4;;;35.3;;
79592;SDS011;69074;45.164;9.704;2023-08-21T05:08:02;57.4;;;35.3;;
79592;SDS011;69074;45.164;9.704;2023-08-21T05:10:27;57.4;;;35.3;;
79592;SDS011;69074;45.164;9.704;2023-08-21T05:12:52;57.4;;;35.3;;
79592;SDS011;69074;45.164;9.704;2023-08-21T05:15:17;57.4;;;35.3;;
79592;SDS011;69074;45.164;9.704;2023-08-21T05:17:42;57.4;;;35.3;;
79592;SDS011;69074;45.164;9.704;2023-08-21T05:20:07;33.0;;;27.9;;
79592;SDS011;69074;45.164;9.704;2023-08-21T05:22:32;33.0;;;27.9;;
79592;SDS011;69074;45.164;9.704;2023-08-21T05:24:57;33.0;;;27.9;;
79592;SDS011;69074;45.164;9.704;2023-08-21T05:27:22;33.0;;;27.9;;
79592;SDS011;69074;45.164;9.704;2023-08-21T05:29:47;33.0;;;27.9;;
79592;SDS011;69074;45.164;9.704;2023-08-21T05:32:12;33.0;;;27.9;;
79592;SDS011;69074;45.164;9.704;2023-08-21T05:34:37;31.2;;;26.5;;
79592;SDS011;69074;45.164;9.704;2023-08-21T05:37:02;31.2;;;26.5;;
79592;SDS011;69074;45.164;9.704;2023-08-21T05:39:27;31.2;;;26.5;;
79592;SDS011;69074;45.164;9.704;2023-08-21T05:41:52;31.2;;;26.5;;
79592;SDS011;69074;45.164;9.704;2023-08-21T05:44:17;31.2;;;26.5;;
79592;SDS011;69074;45.164;9.704;2023-08-21T05:46:42;31.2;;;26.5;;
79592;SDS011;69074;45.164;9.704;2023-08-21T05:49:07;31.2;;;26.5;;
79592;SDS011;69074;45.164;9.704;2023-08-21T05:51:32;34.0;;;26.9;;
79592;SDS011;69074;45.164;9.704;2023-08-21T05:53:57;34.0;;;26.9;;
79592;SDS011;69074;45.164;9.704;2023-08-21T05:56:22;34.0;;;26.9;;
79592;SDS011;69074;45.164;9.704;2023-08-21T05:58:47;34.0;;;26.9;;
79592;SDS011;69074;45.164;9.704;2023-08-21T06:01:12;34.0;;;26.9;;
79592;SDS011;69074;45.164;9.704;2023-08-21T06:03:37;34.0;;;26.9;;
79592;SDS011;69074;45.164;9.704;2023-08-21T06:06:02;23.6;;;20.9;;
79592;SDS011;69074;45.164;9.704;2023-08-21T06:08:27;23.6;;;20.9;;
79592;SDS011;69074;45.164;9.704;2023-08-21T06:10:52;23.6;;;20.9;;
79592;SDS011;69074;45.164;9.704;2023-08-21T06:13:17;23.6;;;20.9;;
79592;SDS011;69074;45.164;9.704;2023-08-21T06:15:43;23.6;;;20.9;;
79592;SDS011;69074;45.164;9.704;2023-08-21T06:18:07;23.6;;;20.9;;
79592;SDS011;69074;45.164;9.704;2023-08-21T06:20:32;17.9;;;15.5;;
79592;SDS011;69074;45.164;9.704;2023-08-21T06:22:57;17.9;;;15.5;;
79592;SDS011;69074;45.164;9.704;2023-08-21T06:25:22;17.9;;;15.5;;
79592;SDS011;69074;45.164;9.704;2023-08-21T06:27:47;17.9;;;15.5;;
79592;SDS011;69074;45.164;9.704;2023-08-21T06:30:12;unavailable;;;unavailable;;
79592;SDS011;69074;45.164;9.704;2023-08-21T06:32:37;0.0;;;0.0;;
79592;SDS011;69074;45.164;9.704;2023-08-21T06:35:02;0.0;;;0.0;;
79592;SDS011;69074;45.164;9.704;2023-08-21T06:37:27;0.0;;;0.0;;
79592;SDS011;69074;45.164;9.704;2023-08-21T06:39:52;0.0;;;0.0;;
79592;SDS011;69074;45.164;9.704;2023-08-21T06:42:17;0.0;;;0.0;;
79592;SDS011;69074;45.164;9.704;2023-08-21T06:44:42;0.0;;;0.0;;
79592;SDS011;69074;45.164;9.704;2023-08-21T06:47:07;65.4;;;31.0;;
79592;SDS011;69074;45.164;9.704;2023-08-21T06:49:32;65.4;;;31.0;;
79592;SDS011;69074;45.164;9.704;2023-08-21T06:51:58;65.4;;;31.0;;
79592;SDS011;69074;45.164;9.704;2023-08-21T06:54:22;65.4;;;31.0;;
79592;SDS011;69074;45.164;9.704;2023-08-21T06:56:47;65.4;;;31.0;;
79592;SDS011;69074;45.164;9.704;2023-08-21T06:59:12;65.4;;;31.0;;
79592;SDS011;69074;45.164;9.704;2023-08-21T07:01:37;33.6;;;21.0;;
79592;SDS011;69074;45.164;9.704;2023-08-21T07:04:02;33.6;;;21.0;;
79592;SDS011;69074;45.164;9.704;2023-08-21T07:06:28;33.6;;;21.0;;
79592;SDS011;69074;45.164;9.704;2023-08-21T07:08:52;33.6;;;21.0;;
79592;SDS011;69074;45.164;9.704;2023-08-21T07:11:17;33.6;;;21.0;;
79592;SDS011;69074;45.164;9.704;2023-08-21T07:13:42;33.6;;;21.0;;
79592;SDS011;69074;45.164;9.704;2023-08-21T07:16:07;46.4;;;32.0;;
79592;SDS011;69074;45.164;9.704;2023-08-21T07:18:33;46.4;;;32.0;;
79592;SDS011;69074;45.164;9.704;2023-08-21T07:20:57;46.4;;;32.0;;
79592;SDS011;69074;45.164;9.704;2023-08-21T07:23:22;46.4;;;32.0;;
79592;SDS011;69074;45.164;9.704;2023-08-21T07:25:47;46.4;;;32.0;;
79592;SDS011;69074;45.164;9.704;2023-08-21T07:28:12;46.4;;;32.0;;
79592;SDS011;69074;45.164;9.704;2023-08-21T07:30:37;46.4;;;32.0;;
79592;SDS011;69074;45.164;9.704;2023-08-21T07:33:03;42.2;;;32.1;;
79592;SDS011;69074;45.164;9.704;2023-08-21T07:35:27;42.2;;;32.1;;
79592;SDS011;69074;45.164;9.704;2023-08-21T07:37:52;42.2;;;32.1;;
79592;SDS011;69074;45.164;9.704;2023-08-21T07:40:17;42.2;;;32.1;;
79592;SDS011;69074;45.164;9.704;2023-08-21T07:42:42;42.2;;;32.1;;
79592;SDS011;69074;45.164;9.704;2023-08-21T07:45:08;42.2;;;32.1;;
79592;SDS011;69074;45.164;9.704;2023-08-21T07:47:32;38.3;;;32.5;;
79592;SDS011;69074;45.164;9.704;2023-08-21T07:49:57;38.3;;;32.5;;
79592;SDS011;69074;45.164;9.704;2023-08-21T07:52:23;38.3;;;32.5;;
79592;SDS011;69074;45.164;9.704;2023-08-21T07:54:50;38.3;;;32.5;;
79592;SDS011;69074;45.164;9.704;2023-08-21T07:57:13;38.3;;;32.5;;
79592;SDS011;69074;45.164;9.704;2023-08-21T07:59:37;38.3;;;32.5;;
79592;SDS011;69074;45.164;9.704;2023-08-21T08:02:03;50.6;;;42.7;;
79592;SDS011;69074;45.164;9.704;2023-08-21T08:04:28;50.6;;;42.7;;
79592;SDS011;69074;45.164;9.704;2023-08-21T08:06:53;50.6;;;42.7;;
79592;SDS011;69074;45.164;9.704;2023-08-21T08:09:18;50.6;;;42.7;;
79592;SDS011;69074;45.164;9.704;2023-08-21T08:11:43;50.6;;;42.7;;
79592;SDS011;69074;45.164;9.704;2023-08-21T08:14:08;50.6;;;42.7;;
79592;SDS011;69074;45.164;9.704;2023-08-21T08:16:33;34.5;;;26.8;;
79592;SDS011;69074;45.164;9.704;2023-08-21T08:18:58;34.5;;;26.8;;
79592;SDS011;69074;45.164;9.704;2023-08-21T08:21:23;34.5;;;26.8;;
79592;SDS011;69074;45.164;9.704;2023-08-21T08:23:48;34.5;;;26.8;;
79592;SDS011;69074;45.164;9.704;2023-08-21T08:26:13;34.5;;;26.8;;
79592;SDS011;69074;45.164;9.704;2023-08-21T08:28:38;34.5;;;26.8;;
79592;SDS011;69074;45.164;9.704;2023-08-21T08:31:03;24.9;;;20.3;;
79592;SDS011;69074;45.164;9.704;2023-08-21T08:33:28;24.9;;;20.3;;
79592;SDS011;69074;45.164;9.704;2023-08-21T08:35:53;24.9;;;20.3;;
79592;SDS011;69074;45.164;9.704;2023-08-21T08:38:18;24.9;;;20.3;;
79592;SDS011;69074;45.164;9.704;2023-08-21T08:40:45;24.9;;;20.3;;
79592;SDS011;69074;45.164;9.704;2023-08-21T08:43:08;24.9;;;20.3;;
79592;SDS011;69074;45.164;9.704;2023-08-21T08:45:34;24.9;;;20.3;;
79592;SDS011;69074;45.164;9.704;2023-08-21T08:47:59;18.6;;;14.8;;
79592;SDS011;69074;45.164;9.704;2023-08-21T08:50:23;18.6;;;14.8;;
79592;SDS011;69074;45.164;9.704;2023-08-21T08:52:48;18.6;;;14.8;;
79592;SDS011;69074;45.164;9.704;2023-08-21T08:55:13;18.6;;;14.8;;
79592;SDS011;69074;45.164;9.704;2023-08-21T08:57:38;18.6;;;14.8;;
79592;SDS011;69074;45.164;9.704;2023-08-21T09:00:03;18.6;;;14.8;;
79592;SDS011;69074;45.164;9.704;2023-08-21T09:02:28;18.8;;;14.2;;
79592;SDS011;69074;45.164;9.704;2023-08-21T09:04:53;18.8;;;14.2;;
79592;SDS011;69074;45.164;9.704;2023-08-21T09:07:18;18.8;;;14.2;;
79592;SDS011;69074;45.164;9.704;2023-08-21T09:09:44;18.8;;;14.2;;
79592;SDS011;69074;45.164;9.704;2023-08-21T09:12:09;18.8;;;14.2;;
79592;SDS011;69074;45.164;9.704;2023-08-21T09:14:33;18.8;;;14.2;;
79592;SDS011;69074;45.164;9.704;2023-08-21T09:16:59;14.9;;;13.0;;
79592;SDS011;69074;45.164;9.704;2023-08-21T09:19:23;14.9;;;13.0;;
79592;SDS011;69074;45.164;9.704;2023-08-21T09:21:49;14.9;;;13.0;;
79592;SDS011;69074;45.164;9.704;2023-08-21T09:24:13;14.9;;;13.0;;
79592;SDS011;69074;45.164;9.704;2023-08-21T09:26:38;14.9;;;13.0;;
79592;SDS011;69074;45.164;9.704;2023-08-21T09:29:03;14.9;;;13.0;;
79592;SDS011;69074;45.164;9.704;2023-08-21T09:31:29;13.9;;;12.4;;
79592;SDS011;69074;45.164;9.704;2023-08-21T09:33:54;13.9;;;12.4;;
79592;SDS011;69074;45.164;9.704;2023-08-21T09:36:18;13.9;;;12.4;;
79592;SDS011;69074;45.164;9.704;2023-08-21T09:38:45;13.9;;;12.4;;
79592;SDS011;69074;45.164;9.704;2023-08-21T09:41:08;13.9;;;12.4;;
79592;SDS011;69074;45.164;9.704;2023-08-21T09:43:37;13.9;;;12.4;;
79592;SDS011;69074;45.164;9.704;2023-08-21T09:45:58;19.5;;;15.6;;
79592;SDS011;69074;45.164;9.704;2023-08-21T09:48:24;19.5;;;15.6;;
79592;SDS011;69074;45.164;9.704;2023-08-21T09:50:48;19.5;;;15.6;;
79592;SDS011;69074;45.164;9.704;2023-08-21T09:53:13;19.5;;;15.6;;
79592;SDS011;69074;45.164;9.704;2023-08-21T09:55:38;19.5;;;15.6;;
79592;SDS011;69074;45.164;9.704;2023-08-21T09:58:03;19.5;;;15.6;;
79592;SDS011;69074;45.164;9.704;2023-08-21T10:00:29;19.5;;;15.6;;
79592;SDS011;69074;45.164;9.704;2023-08-21T10:02:53;15.1;;;12.5;;
79592;SDS011;69074;45.164;9.704;2023-08-21T10:05:18;15.1;;;12.5;;
79592;SDS011;69074;45.164;9.704;2023-08-21T10:07:43;15.1;;;12.5;;
79592;SDS011;69074;45.164;9.704;2023-08-21T10:10:08;15.1;;;12.5;;
79592;SDS011;69074;45.164;9.704;2023-08-21T10:12:33;15.1;;;12.5;;
79592;SDS011;69074;45.164;9.704;2023-08-21T10:14:58;15.1;;;12.5;;
79592;SDS011;69074;45.164;9.704;2023-08-21T10:17:23;22.7;;;20.5;;
79592;SDS011;69074;45.164;9.704;2023-08-21T10:19:50;22.7;;;20.5;;
79592;SDS011;69074;45.164;9.704;2023-08-21T10:22:13;22.7;;;20.5;;
79592;SDS011;69074;45.164;9.704;2023-08-21T10:24:38;22.7;;;20.5;;
79592;SDS011;69074;45.164;9.704;2023-08-21T10:27:04;22.7;;;20.5;;
79592;SDS011;69074;45.164;9.704;2023-08-21T10:29:29;22.7;;;20.5;;
79592;SDS011;69074;45.164;9.704;2023-08-21T10:32:01;15.1;;;13.1;;
79592;SDS011;69074;45.164;9.704;2023-08-21T10:34:19;15.1;;;13.1;;
79592;SDS011;69074;45.164;9.704;2023-08-21T10:37:04;15.1;;;13.1;;
79592;SDS011;69074;45.164;9.704;2023-08-21T10:39:16;15.1;;;13.1;;
79592;SDS011;69074;45.164;9.704;2023-08-21T10:41:34;15.1;;;13.1;;
79592;SDS011;69074;45.164;9.704;2023-08-21T10:43:58;15.1;;;13.1;;
79592;SDS011;69074;45.164;9.704;2023-08-21T10:46:23;15.1;;;13.5;;
79592;SDS011;69074;45.164;9.704;2023-08-21T10:48:49;15.1;;;13.5;;
79592;SDS011;69074;45.164;9.704;2023-08-21T10:51:14;15.1;;;13.5;;
79592;SDS011;69074;45.164;9.704;2023-08-21T10:53:39;15.1;;;13.5;;
79592;SDS011;69074;45.164;9.704;2023-08-21T10:56:04;15.1;;;13.5;;
79592;SDS011;69074;45.164;9.704;2023-08-21T10:58:34;15.1;;;13.5;;
79592;SDS011;69074;45.164;9.704;2023-08-21T11:00:57;18.5;;;14.9;;
79592;SDS011;69074;45.164;9.704;2023-08-21T11:03:19;18.5;;;14.9;;
79592;SDS011;69074;45.164;9.704;2023-08-21T11:05:44;18.5;;;14.9;;
79592;SDS011;69074;45.164;9.704;2023-08-21T11:08:09;18.5;;;14.9;;
79592;SDS011;69074;45.164;9.704;2023-08-21T11:10:34;18.5;;;14.9;;
79592;SDS011;69074;45.164;9.704;2023-08-21T11:12:59;18.5;;;14.9;;
79592;SDS011;69074;45.164;9.704;2023-08-21T11:15:24;18.5;;;14.9;;
79592;SDS011;69074;45.164;9.704;2023-08-21T11:17:53;14.4;;;12.1;;
79592;SDS011;69074;45.164;9.704;2023-08-21T11:20:14;14.4;;;12.1;;
79592;SDS011;69074;45.164;9.704;2023-08-21T11:22:39;14.4;;;12.1;;
79592;SDS011;69074;45.164;9.704;2023-08-21T11:25:04;14.4;;;12.1;;
79592;SDS011;69074;45.164;9.704;2023-08-21T11:27:29;14.4;;;12.1;;
79592;SDS011;69074;45.164;9.704;2023-08-21T11:29:54;14.4;;;12.1;;
79592;SDS011;69074;45.164;9.704;2023-08-21T11:32:19;15.9;;;14.1;;
79592;SDS011;69074;45.164;9.704;2023-08-21T11:34:47;15.9;;;14.1;;
79592;SDS011;69074;45.164;9.704;2023-08-21T11:37:09;15.9;;;14.1;;
79592;SDS011;69074;45.164;9.704;2023-08-21T11:39:42;15.9;;;14.1;;
79592;SDS011;69074;45.164;9.704;2023-08-21T11:41:59;15.9;;;14.1;;
79592;SDS011;69074;45.164;9.704;2023-08-21T11:44:24;15.9;;;14.1;;
79592;SDS011;69074;45.164;9.704;2023-08-21T11:46:50;14.7;;;13.2;;
79592;SDS011;69074;45.164;9.704;2023-08-21T11:49:14;14.7;;;13.2;;
79592;SDS011;69074;45.164;9.704;2023-08-21T11:51:39;14.7;;;13.2;;
79592;SDS011;69074;45.164;9.704;2023-08-21T11:54:04;14.7;;;13.2;;
79592;SDS011;69074;45.164;9.704;2023-08-21T11:56:29;14.7;;;13.2;;
79592;SDS011;69074;45.164;9.704;2023-08-21T11:58:54;14.7;;;13.2;;
79592;SDS011;69074;45.164;9.704;2023-08-21T12:01:19;12.2;;;11.0;;
79592;SDS011;69074;45.164;9.704;2023-08-21T12:03:44;12.2;;;11.0;;
79592;SDS011;69074;45.164;9.704;2023-08-21T12:06:09;12.2;;;11.0;;
79592;SDS011;69074;45.164;9.704;2023-08-21T12:08:34;12.2;;;11.0;;
79592;SDS011;69074;45.164;9.704;2023-08-21T12:10:59;12.2;;;11.0;;
79592;SDS011;69074;45.164;9.704;2023-08-21T12:13:24;12.2;;;11.0;;
79592;SDS011;69074;45.164;9.704;2023-08-21T12:15:49;12.2;;;11.0;;
79592;SDS011;69074;45.164;9.704;2023-08-21T12:18:14;12.8;;;10.1;;
79592;SDS011;69074;45.164;9.704;2023-08-21T12:20:39;12.8;;;10.1;;
79592;SDS011;69074;45.164;9.704;2023-08-21T12:23:04;12.8;;;10.1;;
79592;SDS011;69074;45.164;9.704;2023-08-21T12:25:29;12.8;;;10.1;;
79592;SDS011;69074;45.164;9.704;2023-08-21T12:27:54;12.8;;;10.1;;
79592;SDS011;69074;45.164;9.704;2023-08-21T12:36:00;12.2;;;11.1;;
79592;SDS011;69074;45.164;9.704;2023-08-21T12:38:25;12.2;;;11.1;;
79592;SDS011;69074;45.164;9.704;2023-08-21T12:40:50;12.2;;;11.1;;
79592;SDS011;69074;45.164;9.704;2023-08-21T12:43:15;12.2;;;11.1;;
79592;SDS011;69074;45.164;9.704;2023-08-21T12:45:40;12.2;;;11.1;;
79592;SDS011;69074;45.164;9.704;2023-08-21T12:48:05;13.8;;;12.5;;
79592;SDS011;69074;45.164;9.704;2023-08-21T12:50:30;13.8;;;12.5;;
79592;SDS011;69074;45.164;9.704;2023-08-21T12:52:55;13.8;;;12.5;;
79592;SDS011;69074;45.164;9.704;2023-08-21T12:55:20;13.8;;;12.5;;
79592;SDS011;69074;45.164;9.704;2023-08-21T12:57:45;13.8;;;12.5;;
79592;SDS011;69074;45.164;9.704;2023-08-21T13:00:11;13.8;;;12.5;;
79592;SDS011;69074;45.164;9.704;2023-08-21T13:02:35;15.2;;;13.6;;
79592;SDS011;69074;45.164;9.704;2023-08-21T13:05:00;15.2;;;13.6;;
79592;SDS011;69074;45.164;9.704;2023-08-21T13:07:25;15.2;;;13.6;;
79592;SDS011;69074;45.164;9.704;2023-08-21T13:09:50;15.2;;;13.6;;
79592;SDS011;69074;45.164;9.704;2023-08-21T13:12:15;15.2;;;13.6;;
79592;SDS011;69074;45.164;9.704;2023-08-21T13:14:40;15.2;;;13.6;;
79592;SDS011;69074;45.164;9.704;2023-08-21T13:17:05;12.9;;;11.5;;
79592;SDS011;69074;45.164;9.704;2023-08-21T13:19:30;12.9;;;11.5;;
79592;SDS011;69074;45.164;9.704;2023-08-21T13:21:55;12.9;;;11.5;;
79592;SDS011;69074;45.164;9.704;2023-08-21T13:24:20;12.9;;;11.5;;
79592;SDS011;69074;45.164;9.704;2023-08-21T13:26:45;12.9;;;11.5;;
79592;SDS011;69074;45.164;9.704;2023-08-21T13:29:10;12.9;;;11.5;;
79592;SDS011;69074;45.164;9.704;2023-08-21T13:31:35;13.1;;;11.8;;
79592;SDS011;69074;45.164;9.704;2023-08-21T13:34:00;13.1;;;11.8;;
79592;SDS011;69074;45.164;9.704;2023-08-21T13:36:26;13.1;;;11.8;;
79592;SDS011;69074;45.164;9.704;2023-08-21T13:38:50;13.1;;;11.8;;
79592;SDS011;69074;45.164;9.704;2023-08-21T13:41:15;13.1;;;11.8;;
79592;SDS011;69074;45.164;9.704;2023-08-21T13:43:40;13.1;;;11.8;;
79592;SDS011;69074;45.164;9.704;2023-08-21T13:46:05;11.6;;;10.4;;
79592;SDS011;69074;45.164;9.704;2023-08-21T13:48:31;11.6;;;10.4;;
79592;SDS011;69074;45.164;9.704;2023-08-21T13:50:56;11.6;;;10.4;;
79592;SDS011;69074;45.164;9.704;2023-08-21T13:53:21;11.6;;;10.4;;
79592;SDS011;69074;45.164;9.704;2023-08-21T13:55:46;11.6;;;10.4;;
79592;SDS011;69074;45.164;9.704;2023-08-21T13:58:11;11.6;;;10.4;;
79592;SDS011;69074;45.164;9.704;2023-08-21T14:00:36;11.6;;;10.4;;
79592;SDS011;69074;45.164;9.704;2023-08-21T14:03:01;12.1;;;10.5;;
79592;SDS011;69074;45.164;9.704;2023-08-21T14:05:26;12.1;;;10.5;;
79592;SDS011;69074;45.164;9.704;2023-08-21T14:07:51;12.1;;;10.5;;
79592;SDS011;69074;45.164;9.704;2023-08-21T14:10:16;12.1;;;10.5;;
79592;SDS011;69074;45.164;9.704;2023-08-21T14:12:41;12.1;;;10.5;;
79592;SDS011;69074;45.164;9.704;2023-08-21T14:15:06;12.1;;;10.5;;
79592;SDS011;69074;45.164;9.704;2023-08-21T14:17:31;11.5;;;10.4;;
79592;SDS011;69074;45.164;9.704;2023-08-21T14:19:56;11.5;;;10.4;;
79592;SDS011;69074;45.164;9.704;2023-08-21T14:22:21;11.5;;;10.4;;
79592;SDS011;69074;45.164;9.704;2023-08-21T14:24:46;11.5;;;10.4;;
79592;SDS011;69074;45.164;9.704;2023-08-21T14:27:11;11.5;;;10.4;;
79592;SDS011;69074;45.164;9.704;2023-08-21T14:29:36;11.5;;;10.4;;
79592;SDS011;69074;45.164;9.704;2023-08-21T14:32:01;11.7;;;10.6;;
79592;SDS011;69074;45.164;9.704;2023-08-21T14:34:26;11.7;;;10.6;;
79592;SDS011;69074;45.164;9.704;2023-08-21T14:36:51;11.7;;;10.6;;
79592;SDS011;69074;45.164;9.704;2023-08-21T14:39:16;11.7;;;10.6;;
79592;SDS011;69074;45.164;9.704;2023-08-21T14:41:41;11.7;;;10.6;;